sensor_id;sensor_type;location;lat;lon;timestamp;temperature;humidity
43808;DHT22;29438;50.664;10.098;2022-10-15T00:00:35;12.20;94.90
43808;DHT22;29438;50.664;10.098;2022-10-15T00:03:00;12.20;94.90
43808;DHT22;29438;50.664;10.098;2022-10-15T00:05:26;12.30;94.90
43808;DHT22;29438;50.664;10.098;2022-10-15T00:07:52;12.30;94.90
43808;DHT22;29438;50.664;10.098;2022-10-15T00:10:18;12.30;94.90
43808;DHT22;29438;50.664;10.098;2022-10-15T00:12:44;12.30;94.90
43808;DHT22;29438;50.664;10.098;2022-10-15T00:15:10;12.30;94.90
43808;DHT22;29438;50.664;10.098;2022-10-15T00:17:36;12.30;94.90
43808;DHT22;29438;50.664;10.098;2022-10-15T00:20:04;12.30;94.90
43808;DHT22;29438;50.664;10.098;2022-10-15T00:22:30;12.30;94.90
43808;DHT22;29438;50.664;10.098;2022-10-15T00:24:56;12.30;94.90
43808;DHT22;29438;50.664;10.098;2022-10-15T00:27:21;12.30;94.90
43808;DHT22;29438;50.664;10.098;2022-10-15T00:29:47;12.30;94.90
43808;DHT22;29438;50.664;10.098;2022-10-15T00:32:13;12.30;95.00
43808;DHT22;29438;50.664;10.098;2022-10-15T00:34:39;12.30;95.00
43808;DHT22;29438;50.664;10.098;2022-10-15T00:37:05;12.30;95.00
43808;DHT22;29438;50.664;10.098;2022-10-15T00:39:30;12.30;95.00
43808;DHT22;29438;50.664;10.098;2022-10-15T00:41:56;12.30;95.00
43808;DHT22;29438;50.664;10.098;2022-10-15T00:47:01;12.30;95.00
43808;DHT22;29438;50.664;10.098;2022-10-15T00:49:41;12.20;95.00
43808;DHT22;29438;50.664;10.098;2022-10-15T00:52:19;12.20;95.00
43808;DHT22;29438;50.664;10.098;2022-10-15T00:54:55;12.20;95.10
43808;DHT22;29438;50.664;10.098;2022-10-15T00:57:23;12.30;95.10
43808;DHT22;29438;50.664;10.098;2022-10-15T00:59:53;12.30;95.10
43808;DHT22;29438;50.664;10.098;2022-10-15T01:02:19;12.30;95.10
43808;DHT22;29438;50.664;10.098;2022-10-15T01:04:45;12.30;95.20
43808;DHT22;29438;50.664;10.098;2022-10-15T01:07:12;12.30;95.10
43808;DHT22;29438;50.664;10.098;2022-10-15T01:09:39;12.30;95.10
43808;DHT22;29438;50.664;10.098;2022-10-15T01:12:18;12.30;95.20
43808;DHT22;29438;50.664;10.098;2022-10-15T01:17:56;12.40;95.20
43808;DHT22;29438;50.664;10.098;2022-10-15T01:23:31;12.40;95.10
43808;DHT22;29438;50.664;10.098;2022-10-15T01:29:06;12.30;95.10
43808;DHT22;29438;50.664;10.098;2022-10-15T01:32:01;12.30;95.10
43808;DHT22;29438;50.664;10.098;2022-10-15T01:37:43;12.30;95.10
43808;DHT22;29438;50.664;10.098;2022-10-15T01:40:20;12.30;95.10
43808;DHT22;29438;50.664;10.098;2022-10-15T01:42:53;12.30;95.10
43808;DHT22;29438;50.664;10.098;2022-10-15T01:45:34;12.30;95.10
43808;DHT22;29438;50.664;10.098;2022-10-15T01:48:07;12.30;95.10
43808;DHT22;29438;50.664;10.098;2022-10-15T01:50:34;12.30;95.10
43808;DHT22;29438;50.664;10.098;2022-10-15T01:53:03;12.30;95.10
43808;DHT22;29438;50.664;10.098;2022-10-15T01:55:31;12.30;95.10
43808;DHT22;29438;50.664;10.098;2022-10-15T01:57:58;12.30;95.10
43808;DHT22;29438;50.664;10.098;2022-10-15T02:00:24;12.30;95.10
43808;DHT22;29438;50.664;10.098;2022-10-15T02:02:50;12.20;95.10
43808;DHT22;29438;50.664;10.098;2022-10-15T02:05:25;12.30;95.10
43808;DHT22;29438;50.664;10.098;2022-10-15T02:07:59;12.30;95.10
43808;DHT22;29438;50.664;10.098;2022-10-15T02:10:32;12.20;95.10
43808;DHT22;29438;50.664;10.098;2022-10-15T02:21:00;12.20;95.10
43808;DHT22;29438;50.664;10.098;2022-10-15T02:26:04;12.20;95.10
43808;DHT22;29438;50.664;10.098;2022-10-15T02:28:32;12.20;95.10
43808;DHT22;29438;50.664;10.098;2022-10-15T02:30:58;12.20;95.10
43808;DHT22;29438;50.664;10.098;2022-10-15T02:33:26;12.30;95.10
43808;DHT22;29438;50.664;10.098;2022-10-15T02:35:53;12.20;95.20
43808;DHT22;29438;50.664;10.098;2022-10-15T02:38:20;12.20;95.10
43808;DHT22;29438;50.664;10.098;2022-10-15T02:40:47;12.20;95.20
43808;DHT22;29438;50.664;10.098;2022-10-15T02:43:14;12.20;95.20
43808;DHT22;29438;50.664;10.098;2022-10-15T02:45:40;12.20;95.20
43808;DHT22;29438;50.664;10.098;2022-10-15T02:48:06;12.30;95.20
43808;DHT22;29438;50.664;10.098;2022-10-15T02:50:32;12.20;95.20
43808;DHT22;29438;50.664;10.098;2022-10-15T02:52:57;12.20;95.20
43808;DHT22;29438;50.664;10.098;2022-10-15T02:55:23;12.30;95.20
43808;DHT22;29438;50.664;10.098;2022-10-15T02:57:48;12.30;95.20
43808;DHT22;29438;50.664;10.098;2022-10-15T03:00:14;12.20;95.20
43808;DHT22;29438;50.664;10.098;2022-10-15T03:02:40;12.20;95.20
43808;DHT22;29438;50.664;10.098;2022-10-15T03:05:06;12.20;95.20
43808;DHT22;29438;50.664;10.098;2022-10-15T03:07:31;12.20;95.20
43808;DHT22;29438;50.664;10.098;2022-10-15T03:09:57;12.30;95.20
43808;DHT22;29438;50.664;10.098;2022-10-15T03:12:22;12.30;95.20
43808;DHT22;29438;50.664;10.098;2022-10-15T03:14:50;12.30;95.20
43808;DHT22;29438;50.664;10.098;2022-10-15T03:17:16;12.30;95.20
43808;DHT22;29438;50.664;10.098;2022-10-15T03:19:41;12.30;95.20
43808;DHT22;29438;50.664;10.098;2022-10-15T03:22:07;12.30;95.20
43808;DHT22;29438;50.664;10.098;2022-10-15T03:24:32;12.30;95.10
43808;DHT22;29438;50.664;10.098;2022-10-15T03:26:58;12.30;95.10
43808;DHT22;29438;50.664;10.098;2022-10-15T03:29:23;12.30;95.10
43808;DHT22;29438;50.664;10.098;2022-10-15T03:31:49;12.20;95.10
43808;DHT22;29438;50.664;10.098;2022-10-15T03:34:15;12.20;95.10
43808;DHT22;29438;50.664;10.098;2022-10-15T03:36:40;12.20;95.10
43808;DHT22;29438;50.664;10.098;2022-10-15T03:39:06;12.20;95.10
43808;DHT22;29438;50.664;10.098;2022-10-15T03:41:32;12.20;95.10
43808;DHT22;29438;50.664;10.098;2022-10-15T03:44:02;12.20;95.10
43808;DHT22;29438;50.664;10.098;2022-10-15T03:46:28;12.20;95.10
43808;DHT22;29438;50.664;10.098;2022-10-15T03:48:54;12.20;95.10
43808;DHT22;29438;50.664;10.098;2022-10-15T03:51:20;12.20;95.20
43808;DHT22;29438;50.664;10.098;2022-10-15T03:53:45;12.20;95.20
43808;DHT22;29438;50.664;10.098;2022-10-15T03:56:11;12.20;95.20
43808;DHT22;29438;50.664;10.098;2022-10-15T03:58:36;12.20;95.20
43808;DHT22;29438;50.664;10.098;2022-10-15T04:01:11;12.20;95.20
43808;DHT22;29438;50.664;10.098;2022-10-15T04:03:37;12.20;95.20
43808;DHT22;29438;50.664;10.098;2022-10-15T04:06:03;12.20;95.20
43808;DHT22;29438;50.664;10.098;2022-10-15T04:08:28;12.20;95.20
43808;DHT22;29438;50.664;10.098;2022-10-15T04:10:54;12.10;95.30
43808;DHT22;29438;50.664;10.098;2022-10-15T04:13:19;12.10;95.30
43808;DHT22;29438;50.664;10.098;2022-10-15T04:15:45;12.10;95.30
43808;DHT22;29438;50.664;10.098;2022-10-15T04:18:10;12.10;95.30
43808;DHT22;29438;50.664;10.098;2022-10-15T04:20:36;12.10;95.30
43808;DHT22;29438;50.664;10.098;2022-10-15T04:23:02;12.00;95.30
43808;DHT22;29438;50.664;10.098;2022-10-15T04:25:28;12.00;95.30
43808;DHT22;29438;50.664;10.098;2022-10-15T04:27:54;12.00;95.30
43808;DHT22;29438;50.664;10.098;2022-10-15T04:30:19;12.00;95.40
43808;DHT22;29438;50.664;10.098;2022-10-15T04:32:45;12.00;95.40
43808;DHT22;29438;50.664;10.098;2022-10-15T04:35:10;12.10;95.40
43808;DHT22;29438;50.664;10.098;2022-10-15T04:37:36;12.00;95.40
43808;DHT22;29438;50.664;10.098;2022-10-15T04:40:02;12.00;95.40
43808;DHT22;29438;50.664;10.098;2022-10-15T04:42:29;12.00;95.50
43808;DHT22;29438;50.664;10.098;2022-10-15T04:44:55;12.00;95.50
43808;DHT22;29438;50.664;10.098;2022-10-15T04:47:21;12.00;95.50
43808;DHT22;29438;50.664;10.098;2022-10-15T04:49:47;11.90;95.50
43808;DHT22;29438;50.664;10.098;2022-10-15T04:52:13;11.90;95.50
43808;DHT22;29438;50.664;10.098;2022-10-15T04:54:39;11.90;95.50
43808;DHT22;29438;50.664;10.098;2022-10-15T04:57:05;11.90;95.50
43808;DHT22;29438;50.664;10.098;2022-10-15T04:59:31;11.80;95.50
43808;DHT22;29438;50.664;10.098;2022-10-15T05:01:56;11.80;95.50
43808;DHT22;29438;50.664;10.098;2022-10-15T05:04:22;11.80;95.50
43808;DHT22;29438;50.664;10.098;2022-10-15T05:06:47;11.80;95.50
43808;DHT22;29438;50.664;10.098;2022-10-15T05:09:13;11.70;95.50
43808;DHT22;29438;50.664;10.098;2022-10-15T05:11:39;11.70;95.50
43808;DHT22;29438;50.664;10.098;2022-10-15T05:14:05;11.70;95.60
43808;DHT22;29438;50.664;10.098;2022-10-15T05:16:31;11.80;95.60
43808;DHT22;29438;50.664;10.098;2022-10-15T05:19:02;11.80;95.70
43808;DHT22;29438;50.664;10.098;2022-10-15T05:21:29;11.80;95.70
43808;DHT22;29438;50.664;10.098;2022-10-15T05:23:58;11.80;95.70
43808;DHT22;29438;50.664;10.098;2022-10-15T05:26:25;11.80;95.70
43808;DHT22;29438;50.664;10.098;2022-10-15T05:28:52;11.80;95.70
43808;DHT22;29438;50.664;10.098;2022-10-15T05:31:20;11.70;95.70
43808;DHT22;29438;50.664;10.098;2022-10-15T05:33:47;11.80;95.70
43808;DHT22;29438;50.664;10.098;2022-10-15T05:36:21;11.80;95.80
43808;DHT22;29438;50.664;10.098;2022-10-15T05:38:49;11.90;95.80
43808;DHT22;29438;50.664;10.098;2022-10-15T05:41:16;11.90;95.90
43808;DHT22;29438;50.664;10.098;2022-10-15T05:43:42;12.00;95.90
43808;DHT22;29438;50.664;10.098;2022-10-15T05:46:10;12.10;95.90
43808;DHT22;29438;50.664;10.098;2022-10-15T05:48:35;12.20;95.90
43808;DHT22;29438;50.664;10.098;2022-10-15T05:51:11;12.20;95.90
43808;DHT22;29438;50.664;10.098;2022-10-15T05:53:37;12.30;95.90
43808;DHT22;29438;50.664;10.098;2022-10-15T05:56:04;12.40;96.00
43808;DHT22;29438;50.664;10.098;2022-10-15T05:58:31;12.50;96.00
43808;DHT22;29438;50.664;10.098;2022-10-15T06:00:59;12.50;96.00
43808;DHT22;29438;50.664;10.098;2022-10-15T06:03:25;12.60;96.00
43808;DHT22;29438;50.664;10.098;2022-10-15T06:05:51;12.60;96.00
43808;DHT22;29438;50.664;10.098;2022-10-15T06:08:18;12.60;96.00
43808;DHT22;29438;50.664;10.098;2022-10-15T06:10:44;12.70;96.00
43808;DHT22;29438;50.664;10.098;2022-10-15T06:13:10;12.70;96.00
43808;DHT22;29438;50.664;10.098;2022-10-15T06:15:39;12.70;96.00
43808;DHT22;29438;50.664;10.098;2022-10-15T06:18:06;12.80;96.00
43808;DHT22;29438;50.664;10.098;2022-10-15T06:20:32;12.70;96.00
43808;DHT22;29438;50.664;10.098;2022-10-15T06:22:58;12.70;96.00
43808;DHT22;29438;50.664;10.098;2022-10-15T06:25:24;12.80;96.00
43808;DHT22;29438;50.664;10.098;2022-10-15T06:27:50;12.80;96.00
43808;DHT22;29438;50.664;10.098;2022-10-15T06:30:16;12.80;96.00
43808;DHT22;29438;50.664;10.098;2022-10-15T06:32:52;12.80;96.00
43808;DHT22;29438;50.664;10.098;2022-10-15T06:35:19;12.90;96.00
43808;DHT22;29438;50.664;10.098;2022-10-15T06:37:46;12.80;95.90
43808;DHT22;29438;50.664;10.098;2022-10-15T06:40:12;12.80;95.90
43808;DHT22;29438;50.664;10.098;2022-10-15T06:42:38;12.80;95.90
43808;DHT22;29438;50.664;10.098;2022-10-15T06:45:05;12.70;95.90
43808;DHT22;29438;50.664;10.098;2022-10-15T06:47:31;12.70;95.90
43808;DHT22;29438;50.664;10.098;2022-10-15T06:49:56;12.70;95.90
43808;DHT22;29438;50.664;10.098;2022-10-15T06:52:22;12.80;95.90
43808;DHT22;29438;50.664;10.098;2022-10-15T06:54:48;12.80;95.90
43808;DHT22;29438;50.664;10.098;2022-10-15T06:57:14;12.80;95.90
43808;DHT22;29438;50.664;10.098;2022-10-15T06:59:39;12.90;96.00
43808;DHT22;29438;50.664;10.098;2022-10-15T07:02:05;12.90;96.00
43808;DHT22;29438;50.664;10.098;2022-10-15T07:04:30;13.00;96.00
43808;DHT22;29438;50.664;10.098;2022-10-15T07:06:56;13.00;95.90
43808;DHT22;29438;50.664;10.098;2022-10-15T07:09:22;13.00;95.90
43808;DHT22;29438;50.664;10.098;2022-10-15T07:11:47;13.10;95.80
43808;DHT22;29438;50.664;10.098;2022-10-15T07:14:13;13.10;95.70
43808;DHT22;29438;50.664;10.098;2022-10-15T07:16:38;13.10;95.70
43808;DHT22;29438;50.664;10.098;2022-10-15T07:19:05;13.10;95.50
43808;DHT22;29438;50.664;10.098;2022-10-15T07:21:30;13.10;95.40
43808;DHT22;29438;50.664;10.098;2022-10-15T07:23:56;13.10;95.30
43808;DHT22;29438;50.664;10.098;2022-10-15T07:26:21;13.10;95.20
43808;DHT22;29438;50.664;10.098;2022-10-15T07:28:47;13.10;95.10
43808;DHT22;29438;50.664;10.098;2022-10-15T07:31:13;13.10;95.00
43808;DHT22;29438;50.664;10.098;2022-10-15T07:33:41;13.10;94.90
43808;DHT22;29438;50.664;10.098;2022-10-15T07:36:08;13.10;94.90
43808;DHT22;29438;50.664;10.098;2022-10-15T07:38:35;13.10;94.90
43808;DHT22;29438;50.664;10.098;2022-10-15T07:41:02;13.00;94.80
43808;DHT22;29438;50.664;10.098;2022-10-15T07:43:28;13.00;94.90
43808;DHT22;29438;50.664;10.098;2022-10-15T07:45:55;13.10;94.90
43808;DHT22;29438;50.664;10.098;2022-10-15T07:48:21;13.20;95.00
43808;DHT22;29438;50.664;10.098;2022-10-15T07:50:56;13.20;95.00
43808;DHT22;29438;50.664;10.098;2022-10-15T07:53:22;13.50;95.10
43808;DHT22;29438;50.664;10.098;2022-10-15T07:55:48;13.60;95.00
43808;DHT22;29438;50.664;10.098;2022-10-15T07:58:13;13.80;94.80
43808;DHT22;29438;50.664;10.098;2022-10-15T08:00:39;13.90;94.60
43808;DHT22;29438;50.664;10.098;2022-10-15T08:03:05;13.90;94.20
43808;DHT22;29438;50.664;10.098;2022-10-15T08:05:30;14.20;94.10
43808;DHT22;29438;50.664;10.098;2022-10-15T08:07:56;14.40;93.50
43808;DHT22;29438;50.664;10.098;2022-10-15T08:10:21;14.60;92.40
43808;DHT22;29438;50.664;10.098;2022-10-15T08:12:47;14.40;91.70
43808;DHT22;29438;50.664;10.098;2022-10-15T08:15:13;14.20;91.20
43808;DHT22;29438;50.664;10.098;2022-10-15T08:17:38;14.20;91.60
43808;DHT22;29438;50.664;10.098;2022-10-15T08:20:04;14.20;91.50
43808;DHT22;29438;50.664;10.098;2022-10-15T08:22:30;14.20;91.80
43808;DHT22;29438;50.664;10.098;2022-10-15T08:24:55;14.20;91.80
43808;DHT22;29438;50.664;10.098;2022-10-15T08:27:21;14.30;91.60
43808;DHT22;29438;50.664;10.098;2022-10-15T08:29:46;14.50;91.60
43808;DHT22;29438;50.664;10.098;2022-10-15T08:32:12;14.50;91.20
43808;DHT22;29438;50.664;10.098;2022-10-15T08:34:38;14.60;90.60
43808;DHT22;29438;50.664;10.098;2022-10-15T08:37:03;14.70;90.40
43808;DHT22;29438;50.664;10.098;2022-10-15T08:39:29;14.70;90.00
43808;DHT22;29438;50.664;10.098;2022-10-15T08:42:01;14.50;90.30
43808;DHT22;29438;50.664;10.098;2022-10-15T08:44:57;14.40;90.50
43808;DHT22;29438;50.664;10.098;2022-10-15T08:47:39;14.40;90.70
43808;DHT22;29438;50.664;10.098;2022-10-15T08:50:35;14.20;90.90
43808;DHT22;29438;50.664;10.098;2022-10-15T08:53:02;14.20;91.20
43808;DHT22;29438;50.664;10.098;2022-10-15T08:55:34;14.30;91.40
43808;DHT22;29438;50.664;10.098;2022-10-15T08:58:05;14.40;90.80
43808;DHT22;29438;50.664;10.098;2022-10-15T09:06:18;15.60;89.30
43808;DHT22;29438;50.664;10.098;2022-10-15T09:14:22;16.50;85.60
43808;DHT22;29438;50.664;10.098;2022-10-15T09:16:49;16.90;83.40
43808;DHT22;29438;50.664;10.098;2022-10-15T09:19:18;16.90;83.00
43808;DHT22;29438;50.664;10.098;2022-10-15T09:21:46;16.90;83.40
43808;DHT22;29438;50.664;10.098;2022-10-15T09:24:26;16.70;84.10
43808;DHT22;29438;50.664;10.098;2022-10-15T09:27:07;17.00;84.00
43808;DHT22;29438;50.664;10.098;2022-10-15T09:29:47;17.60;82.70
43808;DHT22;29438;50.664;10.098;2022-10-15T09:32:36;17.30;82.60
43808;DHT22;29438;50.664;10.098;2022-10-15T09:35:13;16.80;82.90
43808;DHT22;29438;50.664;10.098;2022-10-15T09:37:59;16.60;84.60
43808;DHT22;29438;50.664;10.098;2022-10-15T09:43:43;15.90;85.70
43808;DHT22;29438;50.664;10.098;2022-10-15T09:46:11;16.30;86.10
43808;DHT22;29438;50.664;10.098;2022-10-15T09:51:43;16.10;85.40
43808;DHT22;29438;50.664;10.098;2022-10-15T09:57:01;17.10;84.60
43808;DHT22;29438;50.664;10.098;2022-10-15T09:59:27;17.10;83.20
43808;DHT22;29438;50.664;10.098;2022-10-15T10:04:41;16.40;84.50
43808;DHT22;29438;50.664;10.098;2022-10-15T10:07:07;16.40;85.00
43808;DHT22;29438;50.664;10.098;2022-10-15T10:12:04;16.90;84.20
43808;DHT22;29438;50.664;10.098;2022-10-15T10:14:43;17.00;83.80
43808;DHT22;29438;50.664;10.098;2022-10-15T10:17:18;16.80;83.00
43808;DHT22;29438;50.664;10.098;2022-10-15T10:20:01;16.70;83.50
43808;DHT22;29438;50.664;10.098;2022-10-15T10:22:27;16.70;83.20
43808;DHT22;29438;50.664;10.098;2022-10-15T10:24:52;16.40;83.90
43808;DHT22;29438;50.664;10.098;2022-10-15T10:27:28;16.40;84.80
43808;DHT22;29438;50.664;10.098;2022-10-15T10:29:58;16.50;84.20
43808;DHT22;29438;50.664;10.098;2022-10-15T10:32:30;16.90;83.60
43808;DHT22;29438;50.664;10.098;2022-10-15T10:34:57;17.20;82.80
43808;DHT22;29438;50.664;10.098;2022-10-15T10:37:24;17.10;82.80
43808;DHT22;29438;50.664;10.098;2022-10-15T10:39:58;17.20;81.90
43808;DHT22;29438;50.664;10.098;2022-10-15T10:42:33;17.30;82.60
43808;DHT22;29438;50.664;10.098;2022-10-15T10:45:21;17.70;81.50
43808;DHT22;29438;50.664;10.098;2022-10-15T10:47:47;17.90;80.80
43808;DHT22;29438;50.664;10.098;2022-10-15T10:50:31;18.10;80.10
43808;DHT22;29438;50.664;10.098;2022-10-15T10:53:15;18.10;80.30
43808;DHT22;29438;50.664;10.098;2022-10-15T10:55:44;17.90;78.80
43808;DHT22;29438;50.664;10.098;2022-10-15T10:58:17;17.70;80.70
43808;DHT22;29438;50.664;10.098;2022-10-15T11:00:46;17.70;79.90
43808;DHT22;29438;50.664;10.098;2022-10-15T11:03:39;17.50;79.60
43808;DHT22;29438;50.664;10.098;2022-10-15T11:12:13;17.20;80.80
43808;DHT22;29438;50.664;10.098;2022-10-15T11:14:53;17.00;83.00
43808;DHT22;29438;50.664;10.098;2022-10-15T11:31:11;17.70;82.30
43808;DHT22;29438;50.664;10.098;2022-10-15T11:47:58;18.70;78.00
43808;DHT22;29438;50.664;10.098;2022-10-15T11:50:56;19.20;76.40
43808;DHT22;29438;50.664;10.098;2022-10-15T11:56:24;19.30;76.00
43808;DHT22;29438;50.664;10.098;2022-10-15T11:58:59;18.70;77.40
43808;DHT22;29438;50.664;10.098;2022-10-15T12:01:39;18.20;76.70
43808;DHT22;29438;50.664;10.098;2022-10-15T12:04:15;18.10;79.30
43808;DHT22;29438;50.664;10.098;2022-10-15T12:06:46;18.00;80.30
43808;DHT22;29438;50.664;10.098;2022-10-15T12:09:19;17.80;79.50
43808;DHT22;29438;50.664;10.098;2022-10-15T12:11:55;17.50;80.10
43808;DHT22;29438;50.664;10.098;2022-10-15T12:14:44;17.30;81.40
43808;DHT22;29438;50.664;10.098;2022-10-15T12:17:17;17.60;80.20
43808;DHT22;29438;50.664;10.098;2022-10-15T12:19:49;17.80;80.70
43808;DHT22;29438;50.664;10.098;2022-10-15T12:24:57;18.10;78.40
43808;DHT22;29438;50.664;10.098;2022-10-15T12:27:26;17.90;79.40
43808;DHT22;29438;50.664;10.098;2022-10-15T12:32:43;17.90;79.40
43808;DHT22;29438;50.664;10.098;2022-10-15T12:37:40;17.70;80.40
43808;DHT22;29438;50.664;10.098;2022-10-15T12:40:28;17.80;79.70
43808;DHT22;29438;50.664;10.098;2022-10-15T12:45:28;17.60;80.10
43808;DHT22;29438;50.664;10.098;2022-10-15T12:48:16;17.50;80.20
43808;DHT22;29438;50.664;10.098;2022-10-15T12:50:42;17.70;80.00
43808;DHT22;29438;50.664;10.098;2022-10-15T12:53:29;17.80;80.20
43808;DHT22;29438;50.664;10.098;2022-10-15T12:58:50;17.70;80.10
43808;DHT22;29438;50.664;10.098;2022-10-15T13:11:41;17.30;81.10
43808;DHT22;29438;50.664;10.098;2022-10-15T13:16:37;17.30;80.70
43808;DHT22;29438;50.664;10.098;2022-10-15T13:19:19;17.50;81.40
43808;DHT22;29438;50.664;10.098;2022-10-15T13:21:57;17.50;80.60
43808;DHT22;29438;50.664;10.098;2022-10-15T13:24:27;17.60;81.10
43808;DHT22;29438;50.664;10.098;2022-10-15T13:26:54;17.70;80.90
43808;DHT22;29438;50.664;10.098;2022-10-15T13:29:25;17.70;79.90
43808;DHT22;29438;50.664;10.098;2022-10-15T13:31:54;17.50;81.40
43808;DHT22;29438;50.664;10.098;2022-10-15T13:36:54;17.10;83.20
43808;DHT22;29438;50.664;10.098;2022-10-15T13:39:30;17.10;83.30
43808;DHT22;29438;50.664;10.098;2022-10-15T13:42:16;17.30;82.50
43808;DHT22;29438;50.664;10.098;2022-10-15T13:44:42;17.40;81.10
43808;DHT22;29438;50.664;10.098;2022-10-15T13:47:28;17.30;81.20
43808;DHT22;29438;50.664;10.098;2022-10-15T13:53:10;17.20;81.50
43808;DHT22;29438;50.664;10.098;2022-10-15T13:55:34;17.40;80.80
43808;DHT22;29438;50.664;10.098;2022-10-15T14:01:00;17.50;81.10
43808;DHT22;29438;50.664;10.098;2022-10-15T14:03:29;17.20;80.60
43808;DHT22;29438;50.664;10.098;2022-10-15T14:05:56;17.20;80.30
43808;DHT22;29438;50.664;10.098;2022-10-15T14:08:33;17.20;80.90
43808;DHT22;29438;50.664;10.098;2022-10-15T14:10:59;17.10;80.70
43808;DHT22;29438;50.664;10.098;2022-10-15T14:13:25;17.00;81.60
43808;DHT22;29438;50.664;10.098;2022-10-15T14:15:59;17.00;81.30
43808;DHT22;29438;50.664;10.098;2022-10-15T14:18:33;16.90;81.70
43808;DHT22;29438;50.664;10.098;2022-10-15T14:20:59;16.80;81.50
43808;DHT22;29438;50.664;10.098;2022-10-15T14:23:26;17.00;81.60
43808;DHT22;29438;50.664;10.098;2022-10-15T14:26:00;17.00;81.70
43808;DHT22;29438;50.664;10.098;2022-10-15T14:28:28;16.90;82.00
43808;DHT22;29438;50.664;10.098;2022-10-15T14:30:55;16.80;82.20
43808;DHT22;29438;50.664;10.098;2022-10-15T14:38:51;16.70;82.70
43808;DHT22;29438;50.664;10.098;2022-10-15T14:46:42;16.50;84.00
43808;DHT22;29438;50.664;10.098;2022-10-15T14:49:29;16.50;84.00
43808;DHT22;29438;50.664;10.098;2022-10-15T14:52:10;16.50;84.10
43808;DHT22;29438;50.664;10.098;2022-10-15T14:54:40;16.50;84.10
43808;DHT22;29438;50.664;10.098;2022-10-15T14:57:21;16.60;84.30
43808;DHT22;29438;50.664;10.098;2022-10-15T14:59:51;16.60;83.20
43808;DHT22;29438;50.664;10.098;2022-10-15T15:02:18;16.50;83.80
43808;DHT22;29438;50.664;10.098;2022-10-15T15:04:50;16.60;84.20
43808;DHT22;29438;50.664;10.098;2022-10-15T15:07:19;16.50;84.70
43808;DHT22;29438;50.664;10.098;2022-10-15T15:09:50;16.40;84.10
43808;DHT22;29438;50.664;10.098;2022-10-15T15:12:24;16.30;84.60
43808;DHT22;29438;50.664;10.098;2022-10-15T15:14:51;16.30;84.90
43808;DHT22;29438;50.664;10.098;2022-10-15T15:17:21;16.30;84.60
43808;DHT22;29438;50.664;10.098;2022-10-15T15:19:48;16.30;84.90
43808;DHT22;29438;50.664;10.098;2022-10-15T15:22:17;16.30;85.20
43808;DHT22;29438;50.664;10.098;2022-10-15T15:24:45;16.20;84.90
43808;DHT22;29438;50.664;10.098;2022-10-15T15:27:20;16.20;85.30
43808;DHT22;29438;50.664;10.098;2022-10-15T15:29:48;16.30;85.40
43808;DHT22;29438;50.664;10.098;2022-10-15T15:32:14;16.20;85.50
43808;DHT22;29438;50.664;10.098;2022-10-15T15:34:40;16.20;86.00
43808;DHT22;29438;50.664;10.098;2022-10-15T15:37:17;16.10;86.00
43808;DHT22;29438;50.664;10.098;2022-10-15T15:39:44;16.00;86.50
43808;DHT22;29438;50.664;10.098;2022-10-15T15:42:12;16.00;86.70
43808;DHT22;29438;50.664;10.098;2022-10-15T15:44:38;15.90;87.30
43808;DHT22;29438;50.664;10.098;2022-10-15T15:47:04;15.80;87.50
43808;DHT22;29438;50.664;10.098;2022-10-15T15:49:29;15.70;88.00
43808;DHT22;29438;50.664;10.098;2022-10-15T15:51:55;15.70;88.30
43808;DHT22;29438;50.664;10.098;2022-10-15T15:54:20;15.70;88.50
43808;DHT22;29438;50.664;10.098;2022-10-15T15:56:46;15.70;88.30
43808;DHT22;29438;50.664;10.098;2022-10-15T15:59:11;15.60;88.40
43808;DHT22;29438;50.664;10.098;2022-10-15T16:01:37;15.60;88.80
43808;DHT22;29438;50.664;10.098;2022-10-15T16:04:02;15.50;88.70
43808;DHT22;29438;50.664;10.098;2022-10-15T16:06:28;15.50;88.90
43808;DHT22;29438;50.664;10.098;2022-10-15T16:08:54;15.40;88.90
43808;DHT22;29438;50.664;10.098;2022-10-15T16:11:19;15.40;89.00
43808;DHT22;29438;50.664;10.098;2022-10-15T16:13:45;15.30;89.20
43808;DHT22;29438;50.664;10.098;2022-10-15T16:16:11;15.30;89.20
43808;DHT22;29438;50.664;10.098;2022-10-15T16:18:36;15.30;88.90
43808;DHT22;29438;50.664;10.098;2022-10-15T16:21:03;15.30;89.00
43808;DHT22;29438;50.664;10.098;2022-10-15T16:23:34;15.30;89.10
43808;DHT22;29438;50.664;10.098;2022-10-15T16:26:00;15.30;89.10
43808;DHT22;29438;50.664;10.098;2022-10-15T16:28:25;15.30;89.30
43808;DHT22;29438;50.664;10.098;2022-10-15T16:30:51;15.30;89.30
43808;DHT22;29438;50.664;10.098;2022-10-15T16:33:16;15.20;89.60
43808;DHT22;29438;50.664;10.098;2022-10-15T16:35:42;15.20;89.70
43808;DHT22;29438;50.664;10.098;2022-10-15T16:38:07;15.20;89.50
43808;DHT22;29438;50.664;10.098;2022-10-15T16:40:33;15.10;89.80
43808;DHT22;29438;50.664;10.098;2022-10-15T16:42:59;15.10;89.90
43808;DHT22;29438;50.664;10.098;2022-10-15T16:45:25;15.00;90.00
43808;DHT22;29438;50.664;10.098;2022-10-15T16:47:50;15.10;89.90
43808;DHT22;29438;50.664;10.098;2022-10-15T16:50:16;15.10;90.00
43808;DHT22;29438;50.664;10.098;2022-10-15T16:52:42;15.20;89.80
43808;DHT22;29438;50.664;10.098;2022-10-15T16:55:07;15.10;89.80
43808;DHT22;29438;50.664;10.098;2022-10-15T16:57:33;15.10;89.90
43808;DHT22;29438;50.664;10.098;2022-10-15T16:59:58;15.20;89.90
43808;DHT22;29438;50.664;10.098;2022-10-15T17:02:24;15.10;90.00
43808;DHT22;29438;50.664;10.098;2022-10-15T17:04:50;15.10;90.20
43808;DHT22;29438;50.664;10.098;2022-10-15T17:07:15;15.00;90.50
43808;DHT22;29438;50.664;10.098;2022-10-15T17:09:41;15.00;90.60
43808;DHT22;29438;50.664;10.098;2022-10-15T17:12:09;15.00;90.70
43808;DHT22;29438;50.664;10.098;2022-10-15T17:14:34;15.00;90.80
43808;DHT22;29438;50.664;10.098;2022-10-15T17:17:00;15.00;90.90
43808;DHT22;29438;50.664;10.098;2022-10-15T17:19:25;15.00;90.80
43808;DHT22;29438;50.664;10.098;2022-10-15T17:21:51;15.00;90.80
43808;DHT22;29438;50.664;10.098;2022-10-15T17:24:18;15.00;90.70
43808;DHT22;29438;50.664;10.098;2022-10-15T17:26:44;14.90;90.70
43808;DHT22;29438;50.664;10.098;2022-10-15T17:29:13;15.00;90.60
43808;DHT22;29438;50.664;10.098;2022-10-15T17:31:41;15.00;90.50
43808;DHT22;29438;50.664;10.098;2022-10-15T17:34:09;14.90;90.30
43808;DHT22;29438;50.664;10.098;2022-10-15T17:36:40;14.90;90.40
43808;DHT22;29438;50.664;10.098;2022-10-15T17:39:11;14.90;90.20